createdAt,value
2019-05-01T00:01:00.974Z,49.80
2019-05-01T00:03:25.008Z,44.65
2019-05-01T00:05:32.784Z,42.80
2019-05-01T00:07:38.432Z,43.65
2019-05-01T00:09:44.050Z,41.63
2019-05-01T00:11:49.707Z,40.10
2019-05-01T00:13:55.731Z,36.85
2019-05-01T00:16:01.488Z,36.68
2019-05-01T00:18:07.475Z,37.73
2019-05-01T00:20:13.665Z,37.75
2019-05-01T00:22:19.271Z,38.02
2019-05-01T00:24:24.784Z,39.15
2019-05-01T00:26:30.498Z,35.03
2019-05-01T00:28:36.137Z,39.73
2019-05-01T00:30:41.938Z,37.65
2019-05-01T00:32:47.466Z,38.10
2019-05-01T00:34:53.205Z,36.17
2019-05-01T00:37:00.025Z,40.20
2019-05-01T00:39:07.462Z,38.95
2019-05-01T00:41:14.525Z,38.13
2019-05-01T00:43:20.056Z,38.50
2019-05-01T00:45:26.790Z,39.25
2019-05-01T00:47:32.381Z,41.05
2019-05-01T00:49:38.022Z,40.17
2019-05-01T00:51:43.617Z,40.95
2019-05-01T00:53:49.270Z,42.58
2019-05-01T00:56:05.568Z,41.85
2019-05-01T00:58:29.187Z,40.33
2019-05-01T01:00:52.727Z,39.70
2019-05-01T01:02:58.921Z,38.42
2019-05-01T01:05:05.664Z,39.13
2019-05-01T01:07:11.277Z,39.55
2019-05-01T01:09:17.451Z,40.03
2019-05-01T01:11:23.038Z,38.02
2019-05-01T01:13:28.618Z,35.13
2019-05-01T01:15:34.199Z,38.42
2019-05-01T01:17:39.941Z,36.10
2019-05-01T01:19:45.514Z,34.50
2019-05-01T01:21:51.264Z,33.98
2019-05-01T01:23:57.548Z,36.55
2019-05-01T01:26:03.209Z,34.85
2019-05-01T01:28:08.857Z,34.48
2019-05-01T01:30:14.835Z,31.20
2019-05-01T01:32:20.698Z,30.35
2019-05-01T01:34:26.656Z,29.63
2019-05-01T01:36:32.279Z,29.02
2019-05-01T01:38:37.924Z,29.85
2019-05-01T01:40:44.992Z,27.48
2019-05-01T01:42:52.491Z,29.57
2019-05-01T01:45:15.420Z,27.22
2019-05-01T01:47:21.697Z,25.88
2019-05-01T01:49:27.421Z,27.67
2019-05-01T01:51:33.163Z,26.17
2019-05-01T01:53:38.819Z,26.17
2019-05-01T01:55:46.658Z,25.52
2019-05-01T01:57:52.575Z,27.42
2019-05-01T01:59:58.715Z,26.50
2019-05-01T02:02:08.933Z,25.08
2019-05-01T02:04:18.891Z,25.10
2019-05-01T02:06:25.612Z,26.17
2019-05-01T02:08:31.416Z,22.98
2019-05-01T02:10:42.838Z,21.50
2019-05-01T02:12:45.078Z,21.20
2019-05-01T02:14:50.772Z,21.17
2019-05-01T02:16:57.521Z,20.50
2019-05-01T02:19:03.274Z,19.85
2019-05-01T02:21:08.871Z,19.05
2019-05-01T02:23:14.417Z,20.00
2019-05-01T02:25:20.446Z,19.80
2019-05-01T02:27:30.863Z,19.10
2019-05-01T02:29:41.012Z,18.80
2019-05-01T02:31:49.941Z,19.32
2019-05-01T02:33:56.296Z,16.87
2019-05-01T02:36:03.529Z,17.02
2019-05-01T02:38:10.404Z,18.77
2019-05-01T02:40:24.673Z,18.15
2019-05-01T02:42:32.901Z,17.00
2019-05-01T02:44:42.575Z,16.77
2019-05-01T02:46:50.553Z,16.82
2019-05-01T02:49:08.106Z,17.62
2019-05-01T02:51:14.077Z,16.37
2019-05-01T02:53:21.335Z,14.85
2019-05-01T02:55:28.623Z,14.78
2019-05-01T02:57:36.497Z,16.27
2019-05-01T02:59:45.237Z,15.90
2019-05-01T03:01:51.098Z,14.53
2019-05-01T03:03:57.256Z,15.35
2019-05-01T03:06:03.200Z,14.43
2019-05-01T03:08:10.382Z,13.55
2019-05-01T03:10:17.375Z,13.58
2019-05-01T03:12:25.978Z,13.22
2019-05-01T03:14:34.354Z,13.20
2019-05-01T03:16:40.770Z,14.28
2019-05-01T03:18:49.764Z,13.05
2019-05-01T03:21:04.243Z,12.03
2019-05-01T03:23:24.333Z,12.75
2019-05-01T03:25:30.113Z,12.13
2019-05-01T03:27:35.965Z,11.68
2019-05-01T03:29:42.066Z,12.63
2019-05-01T03:32:14.476Z,12.13
2019-05-01T03:33:57.145Z,11.85
2019-05-01T03:36:03.979Z,12.25
2019-05-01T03:38:09.651Z,11.75
2019-05-01T03:40:15.515Z,10.75
2019-05-01T03:42:21.566Z,10.75
2019-05-01T03:44:27.345Z,11.85
2019-05-01T03:46:33.209Z,9.70
2019-05-01T03:48:39.152Z,10.98
2019-05-01T03:50:47.089Z,10.85
2019-05-01T03:52:52.525Z,10.60
2019-05-01T03:54:58.179Z,9.60
2019-05-01T03:57:04.281Z,10.25
2019-05-01T03:59:10.085Z,10.23
2019-05-01T04:01:19.215Z,10.30
2019-05-01T04:03:26.588Z,10.32
2019-05-01T04:05:32.308Z,8.98
2019-05-01T04:07:38.049Z,9.70
2019-05-01T04:09:43.725Z,10.20
2019-05-01T04:11:49.630Z,10.13
2019-05-01T04:13:55.169Z,9.98
2019-05-01T04:16:00.944Z,10.25
2019-05-01T04:18:08.956Z,9.83
2019-05-01T04:20:14.892Z,9.83
2019-05-01T04:22:20.545Z,8.78
2019-05-01T04:24:26.869Z,10.35
2019-05-01T04:26:32.724Z,9.48
2019-05-01T04:28:40.498Z,9.15
2019-05-01T04:30:57.064Z,8.83
2019-05-01T04:33:04.283Z,9.03
2019-05-01T04:35:15.310Z,8.90
2019-05-01T04:37:22.540Z,9.28
2019-05-01T04:39:28.398Z,8.98
2019-05-01T04:41:35.381Z,8.90
2019-05-01T04:43:41.330Z,9.05
2019-05-01T04:45:47.737Z,9.48
2019-05-01T04:47:53.893Z,9.18
2019-05-01T04:50:00.384Z,7.62
2019-05-01T04:52:06.274Z,8.65
2019-05-01T04:54:12.688Z,9.05
2019-05-01T04:56:18.806Z,8.03
2019-05-01T04:58:24.449Z,8.43
2019-05-01T05:00:30.187Z,8.60
2019-05-01T05:02:38.330Z,8.43
2019-05-01T05:04:44.370Z,9.43
2019-05-01T05:06:50.803Z,8.70
2019-05-01T05:08:57.153Z,8.38
2019-05-01T05:11:04.428Z,7.85
2019-05-01T05:13:11.679Z,8.73
2019-05-01T05:15:31.356Z,7.60
2019-05-01T05:17:37.062Z,7.92
2019-05-01T05:19:42.872Z,8.90
2019-05-01T05:21:48.720Z,8.38
2019-05-01T05:23:54.573Z,8.05
2019-05-01T05:26:01.236Z,9.18
2019-05-01T05:28:06.891Z,8.20
2019-05-01T05:30:12.688Z,7.75
2019-05-01T05:32:20.979Z,7.97
2019-05-01T05:34:27.501Z,7.97
2019-05-01T05:36:35.377Z,8.08
2019-05-01T05:38:44.364Z,8.45
2019-05-01T05:40:50.378Z,8.35
2019-05-01T05:42:56.530Z,9.13
2019-05-01T05:45:02.496Z,8.30
2019-05-01T05:47:09.060Z,8.33
2019-05-01T05:49:15.006Z,8.45
2019-05-01T05:51:29.912Z,8.63
2019-05-01T05:53:48.821Z,7.87
2019-05-01T05:55:59.345Z,7.78
2019-05-01T05:58:13.792Z,8.95
2019-05-01T06:00:23.483Z,7.83
2019-05-01T06:02:48.411Z,8.53
2019-05-01T06:05:01.590Z,9.00
2019-05-01T06:07:24.446Z,8.38
2019-05-01T06:09:35.153Z,7.72
2019-05-01T06:11:43.344Z,8.83
2019-05-01T06:13:52.533Z,8.40
2019-05-01T06:16:04.080Z,8.73
2019-05-01T06:18:17.305Z,9.20
2019-05-01T06:20:25.872Z,8.73
2019-05-01T06:22:40.695Z,8.53
2019-05-01T06:25:02.919Z,9.25
2019-05-01T06:29:15.402Z,8.78
2019-05-01T06:31:22.990Z,8.33
2019-05-01T06:33:28.427Z,9.00
2019-05-01T06:35:38.263Z,9.33
2019-05-01T06:38:02.055Z,8.85
2019-05-01T06:40:09.663Z,9.10
2019-05-01T06:42:16.948Z,8.35
2019-05-01T06:44:24.364Z,8.80
2019-05-01T06:46:35.545Z,12.20
2019-05-01T06:49:01.917Z,8.30
2019-05-01T06:51:12.918Z,20.02
2019-05-01T06:53:16.701Z,13.08
2019-05-01T06:55:26.570Z,10.32
2019-05-01T06:57:30.756Z,11.80
2019-05-01T06:59:38.352Z,14.28
2019-05-01T07:01:44.499Z,31.87
2019-05-01T07:04:03.243Z,16.80
2019-05-01T07:05:57.538Z,21.90
2019-05-01T07:08:03.904Z,11.45
2019-05-01T07:10:09.657Z,10.75
2019-05-01T07:12:17.588Z,9.50
2019-05-01T07:14:23.382Z,10.32
2019-05-01T07:16:33.136Z,9.65
2019-05-01T07:18:36.497Z,10.35
2019-05-01T07:20:47.270Z,11.22
2019-05-01T07:22:51.606Z,10.53
2019-05-01T07:24:58.955Z,10.03
2019-05-01T07:27:04.789Z,8.93
2019-05-01T07:29:18.037Z,8.23
2019-05-01T07:31:26.111Z,10.57
2019-05-01T07:33:31.444Z,9.15
2019-05-01T07:35:38.133Z,10.13
2019-05-01T07:37:44.338Z,8.45
2019-05-01T07:39:51.729Z,8.33
2019-05-01T07:41:59.116Z,9.15
2019-05-01T07:44:12.730Z,14.95
2019-05-01T07:46:20.144Z,8.00
2019-05-01T07:48:41.703Z,7.75
2019-05-01T07:50:45.709Z,9.63
2019-05-01T07:52:53.950Z,12.37
2019-05-01T07:55:00.113Z,7.75
2019-05-01T07:57:05.714Z,8.40
2019-05-01T07:59:11.453Z,8.25
2019-05-01T08:01:36.827Z,7.75
2019-05-01T08:03:42.955Z,11.30
2019-05-01T08:05:49.552Z,7.53
2019-05-01T08:07:55.144Z,7.47
2019-05-01T08:10:00.671Z,7.15
2019-05-01T08:12:06.449Z,7.37
2019-05-01T08:14:16.668Z,10.05
2019-05-01T08:16:20.501Z,9.93
2019-05-01T08:18:43.291Z,8.65
2019-05-01T08:20:51.597Z,9.98
2019-05-01T08:22:57.228Z,7.95
2019-05-01T08:25:02.909Z,7.50
2019-05-01T08:27:10.192Z,20.23
2019-05-01T08:29:26.151Z,7.55
2019-05-01T08:31:42.232Z,35.23
2019-05-01T08:33:52.085Z,38.40
2019-05-01T08:35:57.611Z,27.60
2019-05-01T08:38:03.271Z,13.62
2019-05-01T08:40:09.133Z,8.68
2019-05-01T08:42:14.726Z,7.45
2019-05-01T08:44:24.866Z,16.65
2019-05-01T08:46:50.608Z,16.95
2019-05-01T08:48:58.827Z,12.73
2019-05-01T08:51:04.555Z,13.08
2019-05-01T08:53:10.193Z,16.55
2019-05-01T08:55:15.864Z,12.28
2019-05-01T08:57:21.375Z,5.65
2019-05-01T08:59:26.964Z,6.22
2019-05-01T09:01:32.536Z,5.45
2019-05-01T09:03:38.143Z,5.83
2019-05-01T09:05:43.732Z,5.85
2019-05-01T09:07:51.320Z,6.65
2019-05-01T09:09:56.451Z,7.70
2019-05-01T09:12:02.109Z,6.85
2019-05-01T09:14:07.697Z,6.67
2019-05-01T09:16:13.216Z,6.90
2019-05-01T09:18:18.955Z,14.00
2019-05-01T09:20:24.748Z,7.67
2019-05-01T09:22:30.475Z,23.62
2019-05-01T09:24:36.211Z,7.60
2019-05-01T09:26:50.289Z,10.93
2019-05-01T09:29:16.110Z,9.70
2019-05-01T09:31:22.984Z,9.13
2019-05-01T09:33:30.896Z,8.03
2019-05-01T09:35:40.466Z,7.53
2019-05-01T09:37:43.083Z,7.45
2019-05-01T09:39:48.732Z,7.70
2019-05-01T09:41:54.320Z,7.15
2019-05-01T09:43:59.898Z,6.17
2019-05-01T09:46:05.545Z,5.85
2019-05-01T09:48:11.189Z,6.47
2019-05-01T09:50:16.776Z,6.50
2019-05-01T09:52:29.718Z,6.50
2019-05-01T09:54:46.712Z,6.33
2019-05-01T09:56:50.354Z,6.65
2019-05-01T09:58:55.989Z,6.03
2019-05-01T10:01:01.589Z,6.70
2019-05-01T10:03:07.283Z,6.53
2019-05-01T10:05:13.042Z,7.20
2019-05-01T10:07:18.633Z,6.90
2019-05-01T10:09:26.592Z,8.33
2019-05-01T10:11:36.046Z,7.47
2019-05-01T10:13:41.476Z,6.58
2019-05-01T10:15:47.149Z,7.35
2019-05-01T10:17:52.672Z,7.72
2019-05-01T10:19:58.389Z,7.72
2019-05-01T10:22:03.980Z,8.15
2019-05-01T10:24:09.620Z,7.33
2019-05-01T10:26:19.109Z,6.95
2019-05-01T10:28:25.627Z,7.50
2019-05-01T10:30:36.373Z,8.40
2019-05-01T10:32:44.401Z,7.87
2019-05-01T10:34:57.490Z,6.22
2019-05-01T10:37:03.123Z,6.75
2019-05-01T10:39:10.125Z,6.97
2019-05-01T10:41:15.654Z,6.87
2019-05-01T10:43:21.186Z,6.97
2019-05-01T10:45:26.813Z,6.95
2019-05-01T10:47:32.447Z,6.83
2019-05-01T10:49:38.096Z,6.70
2019-05-01T10:51:43.686Z,6.00
2019-05-01T10:53:49.184Z,6.15
2019-05-01T10:55:54.779Z,6.78
2019-05-01T10:58:03.227Z,7.17
2019-05-01T11:00:11.519Z,6.40
2019-05-01T11:02:19.260Z,6.58
2019-05-01T11:04:24.851Z,5.95
2019-05-01T11:06:30.436Z,6.55
2019-05-01T11:08:35.960Z,5.53
2019-05-01T11:10:41.551Z,5.65
2019-05-01T11:12:47.183Z,6.70
2019-05-01T11:14:52.713Z,7.45
2019-05-01T11:16:58.758Z,6.15
2019-05-01T11:19:05.477Z,6.70
2019-05-01T11:21:11.076Z,6.00
2019-05-01T11:23:16.731Z,6.28
2019-05-01T11:25:23.744Z,5.35
2019-05-01T11:27:29.355Z,5.47
2019-05-01T11:29:34.924Z,5.45
2019-05-01T11:31:58.733Z,5.47
2019-05-01T11:34:06.083Z,5.90
2019-05-01T11:36:13.271Z,5.50
2019-05-01T11:38:23.229Z,6.03
2019-05-01T11:40:36.598Z,5.87
2019-05-01T11:42:42.131Z,5.20
2019-05-01T11:44:47.723Z,5.33
2019-05-01T11:46:54.212Z,5.08
2019-05-01T11:48:59.739Z,5.75
2019-05-01T11:51:05.614Z,5.45
2019-05-01T11:53:11.132Z,4.70
2019-05-01T11:55:16.840Z,4.72
2019-05-01T11:57:22.404Z,4.92
2019-05-01T11:59:27.928Z,5.28
2019-05-01T12:01:33.456Z,5.28
2019-05-01T12:03:39.031Z,5.15
2019-05-01T12:05:44.585Z,5.03
2019-05-01T12:07:50.189Z,5.53
2019-05-01T12:09:55.794Z,5.30
2019-05-01T12:12:03.174Z,5.45
2019-05-01T12:14:08.842Z,5.75
2019-05-01T12:16:21.759Z,6.45
2019-05-01T12:18:27.341Z,5.40
2019-05-01T12:20:32.977Z,5.25
2019-05-01T12:22:38.548Z,5.60
2019-05-01T12:24:45.217Z,6.15
2019-05-01T12:26:50.839Z,5.53
2019-05-01T12:28:56.413Z,4.70
2019-05-01T12:31:03.260Z,5.00
2019-05-01T12:33:08.953Z,5.22
2019-05-01T12:35:14.634Z,5.40
2019-05-01T12:37:33.796Z,5.12
2019-05-01T12:39:39.354Z,4.97
2019-05-01T12:41:53.231Z,4.78
2019-05-01T12:43:58.744Z,4.28
2019-05-01T12:46:04.647Z,5.35
2019-05-01T12:48:10.241Z,4.40
2019-05-01T12:50:16.449Z,3.87
2019-05-01T12:52:23.666Z,4.22
2019-05-01T12:54:37.175Z,4.45
2019-05-01T12:56:44.375Z,4.45
2019-05-01T12:58:50.462Z,4.65
2019-05-01T13:00:56.441Z,4.50
2019-05-01T13:03:02.005Z,4.75
2019-05-01T13:05:08.175Z,4.20
2019-05-01T13:07:14.479Z,4.47
2019-05-01T13:09:23.573Z,5.00
2019-05-01T13:11:27.496Z,4.78
2019-05-01T13:13:34.145Z,4.90
2019-05-01T13:15:39.663Z,5.12
2019-05-01T13:17:45.206Z,4.60
2019-05-01T13:19:50.724Z,5.05
2019-05-01T13:21:56.362Z,6.00
2019-05-01T13:24:02.030Z,6.40
2019-05-01T13:26:09.532Z,5.92
2019-05-01T13:28:16.873Z,6.28
2019-05-01T13:30:24.181Z,6.08
2019-05-01T13:32:31.413Z,6.83
2019-05-01T13:34:36.985Z,5.80
2019-05-01T13:36:42.704Z,6.40
2019-05-01T13:38:48.293Z,5.65
2019-05-01T13:40:53.830Z,5.70
2019-05-01T13:42:59.404Z,5.53
2019-05-01T13:45:07.537Z,4.60
2019-05-01T13:47:13.063Z,5.67
2019-05-01T13:49:18.588Z,5.50
2019-05-01T13:51:24.170Z,5.17
2019-05-01T13:53:29.802Z,5.72
2019-05-01T13:55:35.401Z,5.42
2019-05-01T13:57:40.984Z,4.42
2019-05-01T13:59:46.554Z,4.30
2019-05-01T14:01:52.240Z,4.62
2019-05-01T14:03:57.810Z,4.83
2019-05-01T14:06:03.515Z,4.20
2019-05-01T14:08:09.122Z,4.40
2019-05-01T14:10:15.166Z,5.67
2019-05-01T14:12:20.755Z,4.42
2019-05-01T14:14:26.362Z,4.67
2019-05-01T14:16:31.931Z,4.83
2019-05-01T14:18:37.536Z,6.35
2019-05-01T14:20:54.627Z,6.00
2019-05-01T14:23:01.780Z,5.65
2019-05-01T14:25:09.163Z,8.15
2019-05-01T14:27:14.722Z,6.37
2019-05-01T14:29:20.324Z,6.40
2019-05-01T14:31:25.855Z,7.12
2019-05-01T14:33:31.444Z,8.18
2019-05-01T14:35:36.964Z,6.28
2019-05-01T14:37:44.767Z,6.67
2019-05-01T14:39:50.513Z,7.78
2019-05-01T14:42:18.385Z,7.17
2019-05-01T14:44:35.717Z,6.35
2019-05-01T14:46:31.407Z,5.17
2019-05-01T14:48:36.933Z,5.97
2019-05-01T14:50:42.477Z,6.42
2019-05-01T14:52:48.971Z,4.75
2019-05-01T14:54:54.501Z,6.80
2019-05-01T14:57:00.028Z,5.12
2019-05-01T14:59:05.810Z,5.60
2019-05-01T15:01:11.325Z,5.85
2019-05-01T15:03:16.855Z,6.03
2019-05-01T15:05:22.452Z,5.70
2019-05-01T15:07:28.031Z,5.90
2019-05-01T15:09:33.645Z,6.35
2019-05-01T15:11:40.309Z,6.90
2019-05-01T15:13:53.698Z,6.50
2019-05-01T15:16:06.676Z,7.37
2019-05-01T15:18:13.838Z,7.58
2019-05-01T15:20:19.381Z,7.95
2019-05-01T15:22:24.972Z,7.20
2019-05-01T15:24:30.500Z,12.40
2019-05-01T15:26:36.021Z,7.83
2019-05-01T15:28:41.624Z,9.93
2019-05-01T15:30:47.164Z,8.43
2019-05-01T15:32:52.699Z,8.48
2019-05-01T15:34:58.216Z,7.35
2019-05-01T15:37:04.013Z,7.67
2019-05-01T15:39:11.613Z,7.60
2019-05-01T15:41:33.884Z,8.83
2019-05-01T15:43:43.824Z,7.97
2019-05-01T15:45:49.348Z,7.83
2019-05-01T15:47:54.860Z,6.95
2019-05-01T15:50:00.500Z,7.75
2019-05-01T15:52:06.156Z,9.08
2019-05-01T15:54:11.680Z,8.03
2019-05-01T15:56:17.211Z,8.90
2019-05-01T15:58:22.793Z,10.38
2019-05-01T16:00:28.389Z,52.67
2019-05-01T16:02:47.726Z,24.98
2019-05-01T16:04:53.388Z,29.27
2019-05-01T16:07:01.043Z,10.38
2019-05-01T16:09:07.741Z,12.03
2019-05-01T16:11:15.081Z,16.82
2019-05-01T16:13:20.614Z,12.35
2019-05-01T16:15:30.804Z,17.30
2019-05-01T16:17:36.490Z,16.62
2019-05-01T16:19:42.089Z,13.13
2019-05-01T16:21:47.698Z,13.60
2019-05-01T16:23:53.236Z,13.62
2019-05-01T16:25:58.861Z,17.82
2019-05-01T16:28:04.651Z,19.27
2019-05-01T16:30:10.821Z,15.00
2019-05-01T16:32:16.404Z,14.65
2019-05-01T16:34:22.034Z,15.75
2019-05-01T16:36:27.612Z,18.37
2019-05-01T16:38:34.775Z,18.73
2019-05-01T16:40:56.929Z,16.67
2019-05-01T16:43:02.468Z,16.65
2019-05-01T16:45:08.944Z,18.77
2019-05-01T16:47:14.501Z,19.57
2019-05-01T16:49:20.088Z,19.85
2019-05-01T16:51:25.832Z,18.77
2019-05-01T16:53:31.377Z,23.85
2019-05-01T16:55:36.903Z,19.52
2019-05-01T16:57:42.509Z,22.05
2019-05-01T16:59:48.126Z,29.95
2019-05-01T17:01:55.808Z,24.72
2019-05-01T17:04:14.806Z,28.27
2019-05-01T17:06:25.222Z,23.62
2019-05-01T17:08:44.445Z,20.97
2019-05-01T17:10:51.356Z,22.37
2019-05-01T17:12:57.401Z,26.05
2019-05-01T17:15:02.992Z,23.55
2019-05-01T17:17:10.592Z,22.10
2019-05-01T17:19:16.151Z,21.60
2019-05-01T17:21:21.758Z,22.20
2019-05-01T17:23:27.276Z,21.10
2019-05-01T17:25:32.879Z,26.50
2019-05-01T17:27:38.557Z,22.20
2019-05-01T17:29:44.161Z,23.42
2019-05-01T17:31:49.777Z,24.12
2019-05-01T17:33:56.735Z,22.60
2019-05-01T17:36:02.588Z,23.62
2019-05-01T17:38:08.226Z,24.80
2019-05-01T17:40:14.186Z,25.05
2019-05-01T17:42:19.920Z,24.43
2019-05-01T17:44:26.609Z,23.85
2019-05-01T17:46:32.627Z,24.37
2019-05-01T17:48:39.205Z,23.07
2019-05-01T17:50:44.807Z,23.62
2019-05-01T17:52:50.354Z,24.15
2019-05-01T17:54:55.886Z,23.30
2019-05-01T17:57:01.453Z,22.85
2019-05-01T17:59:07.055Z,22.45
2019-05-01T18:01:27.959Z,22.20
2019-05-01T18:03:41.298Z,23.10
2019-05-01T18:06:06.853Z,23.27
2019-05-01T18:08:12.374Z,23.83
2019-05-01T18:10:17.964Z,24.15
2019-05-01T18:12:28.303Z,28.45
2019-05-01T18:14:30.877Z,24.70
2019-05-01T18:16:36.544Z,24.52
2019-05-01T18:18:42.254Z,25.70
2019-05-01T18:20:47.856Z,24.60
2019-05-01T18:22:58.064Z,25.37
2019-05-01T18:25:14.644Z,26.57
2019-05-01T18:27:37.991Z,26.93
2019-05-01T18:29:45.159Z,28.50
2019-05-01T18:31:50.815Z,27.70
2019-05-01T18:33:56.896Z,28.50
2019-05-01T18:36:04.536Z,29.55
2019-05-01T18:38:12.976Z,35.70
2019-05-01T18:40:35.364Z,36.33
2019-05-01T18:42:40.967Z,89.90
2019-05-01T18:44:48.844Z,69.72
2019-05-01T18:46:55.697Z,31.10
2019-05-01T18:49:01.341Z,80.15
2019-05-01T18:51:07.006Z,66.70
2019-05-01T18:53:12.728Z,107.43
2019-05-01T18:55:18.401Z,121.92
2019-05-01T18:57:24.088Z,123.50
2019-05-01T18:59:30.692Z,49.27
2019-05-01T19:01:36.278Z,34.67
2019-05-01T19:03:42.705Z,35.75
2019-05-01T19:05:49.220Z,36.05
2019-05-01T19:07:54.817Z,36.48
2019-05-01T19:10:00.429Z,39.08
2019-05-01T19:12:07.895Z,37.60
2019-05-01T19:14:14.181Z,36.30
2019-05-01T19:16:19.862Z,39.18
2019-05-01T19:18:25.453Z,38.20
2019-05-01T19:20:31.028Z,38.95
2019-05-01T19:22:36.705Z,39.80
2019-05-01T19:24:42.462Z,44.03
2019-05-01T19:26:48.036Z,44.40
2019-05-01T19:28:53.585Z,47.83
2019-05-01T19:30:59.238Z,50.80
2019-05-01T19:33:05.369Z,52.30
2019-05-01T19:35:11.254Z,47.00
2019-05-01T19:37:22.004Z,46.20
2019-05-01T19:39:24.307Z,44.80
2019-05-01T19:41:29.917Z,71.33
2019-05-01T19:43:35.755Z,86.35
2019-05-01T19:45:42.726Z,63.90
2019-05-01T19:47:48.288Z,75.03
2019-05-01T19:49:54.671Z,63.80
2019-05-01T19:52:01.915Z,63.80
2019-05-01T19:54:08.272Z,59.18
2019-05-01T19:56:16.591Z,57.67
2019-05-01T19:58:21.300Z,56.60
2019-05-01T20:00:51.415Z,52.27
2019-05-01T20:02:59.019Z,52.30
2019-05-01T20:05:07.348Z,56.77
2019-05-01T20:07:15.766Z,61.30
2019-05-01T20:09:21.085Z,63.38
2019-05-01T20:11:26.762Z,68.70
2019-05-01T20:13:32.448Z,69.00
2019-05-01T20:15:38.182Z,72.42
2019-05-01T20:17:43.791Z,79.00
2019-05-01T20:19:49.506Z,86.80
2019-05-01T20:21:55.152Z,93.92
2019-05-01T20:24:04.306Z,89.95
2019-05-01T20:26:08.115Z,94.40
2019-05-01T20:28:13.626Z,87.70
2019-05-01T20:30:19.275Z,88.82
2019-05-01T20:32:26.180Z,66.30
2019-05-01T20:34:32.102Z,72.72
2019-05-01T20:36:37.715Z,78.97
2019-05-01T20:38:43.387Z,68.87
2019-05-01T20:40:50.063Z,70.67
2019-05-01T20:42:55.720Z,70.15
2019-05-01T20:45:04.639Z,69.40
2019-05-01T20:47:08.533Z,60.40
2019-05-01T20:49:14.199Z,56.30
2019-05-01T20:51:20.816Z,60.95
2019-05-01T20:53:26.406Z,61.85
2019-05-01T20:55:31.998Z,74.07
2019-05-01T20:57:39.297Z,71.80
2019-05-01T20:59:48.160Z,67.60
2019-05-01T21:01:52.861Z,70.72
2019-05-01T21:04:01.183Z,68.50
2019-05-01T21:06:09.187Z,67.95
2019-05-01T21:08:16.640Z,67.27
2019-05-01T21:10:25.196Z,67.60
2019-05-01T21:12:31.076Z,69.65
2019-05-01T21:14:36.730Z,67.27
2019-05-01T21:16:43.914Z,69.45
2019-05-01T21:18:49.496Z,73.35
2019-05-01T21:20:55.027Z,78.67
2019-05-01T21:23:03.932Z,72.12
2019-05-01T21:25:08.041Z,72.40
2019-05-01T21:27:13.559Z,80.42
2019-05-01T21:29:19.141Z,74.17
2019-05-01T21:31:24.797Z,73.10
2019-05-01T21:33:30.500Z,65.37
2019-05-01T21:35:36.084Z,63.65
2019-05-01T21:37:41.778Z,65.22
2019-05-01T21:39:47.378Z,71.30
2019-05-01T21:41:53.379Z,70.62
2019-05-01T21:43:58.956Z,77.40
2019-05-01T21:46:04.708Z,64.17
2019-05-01T21:48:10.300Z,73.28
2019-05-01T21:50:17.710Z,66.17
2019-05-01T21:52:26.919Z,66.02
2019-05-01T21:54:30.524Z,77.60
2019-05-01T21:56:36.915Z,69.17
2019-05-01T21:58:45.171Z,73.45
2019-05-01T22:00:50.976Z,77.87
2019-05-01T22:02:56.644Z,72.50
2019-05-01T22:05:03.781Z,73.37
2019-05-01T22:07:10.445Z,76.95
2019-05-01T22:09:17.731Z,79.58
2019-05-01T22:11:23.469Z,75.83
2019-05-01T22:13:29.128Z,72.25
2019-05-01T22:15:36.512Z,77.87
2019-05-01T22:17:43.744Z,77.08
2019-05-01T22:19:49.411Z,77.70
2019-05-01T22:21:59.492Z,80.80
2019-05-01T22:24:23.576Z,81.32
2019-05-01T22:26:33.328Z,70.72
2019-05-01T22:28:43.249Z,68.83
2019-05-01T22:30:53.320Z,68.17
2019-05-01T22:32:59.855Z,71.55
2019-05-01T22:35:16.209Z,62.85
2019-05-01T22:37:21.764Z,63.38
2019-05-01T22:39:28.934Z,59.05
2019-05-01T22:41:34.781Z,55.38
2019-05-01T22:43:40.395Z,54.58
2019-05-01T22:45:46.512Z,53.30
2019-05-01T22:47:52.236Z,51.33
2019-05-01T22:49:57.852Z,52.58
2019-05-01T22:52:03.507Z,49.35
2019-05-01T22:54:09.084Z,62.13
2019-05-01T22:56:14.688Z,53.60
2019-05-01T22:58:20.314Z,58.28
2019-05-01T23:00:47.680Z,49.30
2019-05-01T23:02:53.429Z,50.10
2019-05-01T23:04:58.992Z,42.38
2019-05-01T23:07:04.964Z,47.58
2019-05-01T23:09:13.735Z,48.08
2019-05-01T23:11:20.558Z,33.28
2019-05-01T23:13:26.387Z,29.77
2019-05-01T23:15:32.917Z,31.93
2019-05-01T23:17:47.499Z,32.83
2019-05-01T23:19:53.245Z,34.25
2019-05-01T23:21:58.770Z,26.93
2019-05-01T23:24:04.838Z,29.18
2019-05-01T23:26:11.575Z,27.58
2019-05-01T23:28:17.693Z,28.95
2019-05-01T23:30:23.388Z,27.32
2019-05-01T23:32:29.049Z,30.10
2019-05-01T23:34:35.195Z,26.87
2019-05-01T23:36:40.833Z,27.52
2019-05-01T23:38:46.410Z,27.85
2019-05-01T23:40:52.948Z,29.05
2019-05-01T23:42:58.595Z,24.85
2019-05-01T23:45:05.206Z,26.02
2019-05-01T23:47:10.821Z,25.35
2019-05-01T23:49:16.402Z,28.27
2019-05-01T23:51:23.796Z,28.32
2019-05-01T23:53:29.203Z,26.82
2019-05-01T23:55:34.793Z,27.65
2019-05-01T23:57:40.328Z,29.02
2019-05-01T23:59:45.924Z,26.97
